DFFD/OUA METAR and TAF weather

Enter ICAO airport designator
Station Type Date Time Source
DFFD METAR 2019/04/18 20:00 UTC NOAA

DFFD 182000Z 04002KT 8000 NSC 36/03 Q1007 NOSIG


Station Type Date Time Source
DFFD Decoded METAR 2019/04/18 20:00 UTC NOAA

Ouagadougou, Burkina Faso (DFFD) 12-21N 001-31W 306M
Apr 18, 2019 - 04:00 PM EDT / 2019.04.18 2000 UTC
Wind: from the NE (040 degrees) at 2 MPH (2 KT):0
Visibility: 4 mile(s):0
Temperature: 96 F (36 C)
Dew Point: 37 F (3 C)
Relative Humidity: 12%
Pressure (altimeter): 29.74 in. Hg (1007 hPa)
ob: DFFD 182000Z 04002KT 8000 NSC 36/03 Q1007 NOSIG
cycle: 20

Station Type Date Time Source
DFFD TAF 2019/04/18 18:21 UTC NOAA

TAF TAF DFFD 181700Z 1818/1924 VRB08KT 8000 NSC
TEMPO 1818/1821 3500 DU
TEMPO 1906/1910 3500 DU
TEMPO 1916/1924 TS FEW026 FEW040CB

Example: see airport list